createdAt,value
2022-08-31T00:02:05.994Z,23.61
2022-08-31T00:04:35.041Z,23.58
2022-08-31T00:07:03.683Z,23.71
2022-08-31T00:09:33.037Z,23.64
2022-08-31T00:12:03.761Z,23.62
2022-08-31T00:14:32.721Z,23.52
2022-08-31T00:17:01.448Z,23.57
2022-08-31T00:19:34.635Z,23.81
2022-08-31T00:22:03.278Z,23.67
2022-08-31T00:24:32.317Z,23.59
2022-08-31T00:27:01.001Z,23.60
2022-08-31T00:29:31.007Z,23.53
2022-08-31T00:31:59.933Z,23.55
2022-08-31T00:34:28.773Z,23.59
2022-08-31T00:36:57.376Z,23.43
2022-08-31T00:39:26.382Z,23.46
2022-08-31T00:41:55.043Z,23.16
2022-08-31T00:44:23.769Z,23.06
2022-08-31T00:46:54.014Z,23.02
2022-08-31T00:49:24.713Z,22.91
2022-08-31T00:51:55.080Z,22.84
2022-08-31T00:54:27.014Z,22.70
2022-08-31T00:56:56.241Z,22.63
2022-08-31T00:59:25.715Z,22.85
2022-08-31T01:01:55.912Z,22.72
2022-08-31T01:04:24.905Z,22.77
2022-08-31T01:06:53.644Z,22.63
2022-08-31T01:09:28.438Z,22.65
2022-08-31T01:11:57.223Z,22.50
2022-08-31T01:14:26.418Z,22.61
2022-08-31T01:16:57.286Z,22.56
2022-08-31T01:19:30.077Z,22.47
2022-08-31T01:22:05.520Z,22.42
2022-08-31T01:24:35.935Z,22.40
2022-08-31T01:27:07.814Z,22.17
2022-08-31T01:29:37.394Z,22.30
2022-08-31T01:32:08.380Z,22.36
2022-08-31T01:34:37.143Z,22.35
2022-08-31T01:37:06.051Z,22.25
2022-08-31T01:39:36.065Z,22.22
2022-08-31T01:42:05.719Z,21.88
2022-08-31T01:44:34.259Z,22.14
2022-08-31T01:47:03.006Z,22.18
2022-08-31T01:49:32.040Z,21.91
2022-08-31T01:52:00.812Z,22.26
2022-08-31T01:54:29.447Z,22.16
2022-08-31T01:57:03.043Z,22.25
2022-08-31T01:59:32.173Z,22.14
2022-08-31T02:02:01.254Z,22.11
2022-08-31T02:04:30.773Z,22.15
2022-08-31T02:07:01.143Z,22.18
2022-08-31T02:09:30.891Z,22.09
2022-08-31T02:12:01.802Z,22.08
2022-08-31T02:14:30.759Z,22.00
2022-08-31T02:16:59.709Z,22.06
2022-08-31T02:19:28.494Z,22.17
2022-08-31T02:21:57.472Z,22.09
2022-08-31T02:24:26.390Z,22.06
2022-08-31T02:26:57.807Z,22.05
2022-08-31T02:29:28.753Z,22.01
2022-08-31T02:31:58.649Z,21.90
2022-08-31T02:34:28.128Z,21.75
2022-08-31T02:36:57.094Z,21.82
2022-08-31T02:39:26.065Z,21.86
2022-08-31T02:41:56.444Z,21.88
2022-08-31T02:44:27.521Z,21.86
2022-08-31T02:46:57.928Z,21.80
2022-08-31T02:49:27.434Z,21.93
2022-08-31T02:51:56.304Z,21.86
2022-08-31T02:54:24.961Z,21.82
2022-08-31T02:56:53.797Z,21.60
2022-08-31T02:59:23.019Z,21.63
2022-08-31T03:01:56.329Z,21.84
2022-08-31T03:04:26.690Z,21.57
2022-08-31T03:06:55.303Z,21.63
2022-08-31T03:09:24.881Z,21.71
2022-08-31T03:11:53.922Z,21.55
2022-08-31T03:14:22.671Z,21.47
2022-08-31T03:16:53.306Z,21.55
2022-08-31T03:19:22.586Z,21.40
2022-08-31T03:21:56.035Z,21.47
2022-08-31T03:24:27.392Z,21.60
2022-08-31T03:26:56.835Z,21.53
2022-08-31T03:29:25.820Z,21.35
2022-08-31T03:31:55.836Z,21.35
2022-08-31T03:34:25.436Z,21.55
2022-08-31T03:36:55.664Z,21.18
2022-08-31T03:39:24.386Z,21.46
2022-08-31T03:41:53.489Z,21.34
2022-08-31T03:44:23.816Z,21.13
2022-08-31T03:46:55.433Z,21.25
2022-08-31T03:49:25.680Z,21.15
2022-08-31T03:51:57.644Z,21.30
2022-08-31T03:54:26.718Z,21.14
2022-08-31T03:56:55.376Z,21.07
2022-08-31T03:59:24.272Z,21.23
2022-08-31T04:01:59.194Z,21.17
2022-08-31T04:04:44.157Z,21.26
2022-08-31T04:07:18.316Z,21.19
2022-08-31T04:10:02.179Z,20.99
2022-08-31T04:12:34.932Z,20.98
2022-08-31T04:15:06.392Z,21.08
2022-08-31T04:17:39.207Z,21.06
2022-08-31T04:20:15.380Z,21.12
2022-08-31T04:22:45.555Z,21.04
2022-08-31T04:25:15.581Z,21.09
2022-08-31T04:27:50.417Z,21.06
2022-08-31T04:30:21.744Z,20.94
2022-08-31T04:32:51.250Z,20.94
2022-08-31T04:35:20.312Z,20.95
2022-08-31T04:37:50.264Z,21.06
2022-08-31T04:40:25.403Z,21.12
2022-08-31T04:42:54.754Z,21.09
2022-08-31T04:45:24.074Z,21.16
2022-08-31T04:47:53.078Z,21.07
2022-08-31T04:50:22.680Z,21.12
2022-08-31T04:53:03.123Z,21.20
2022-08-31T04:55:33.261Z,21.38
2022-08-31T04:58:02.175Z,21.41
2022-08-31T05:00:30.788Z,21.39
2022-08-31T05:03:00.502Z,21.46
2022-08-31T05:05:29.303Z,21.53
2022-08-31T05:07:59.337Z,21.55
2022-08-31T05:10:28.241Z,21.74
2022-08-31T05:12:56.895Z,21.68
2022-08-31T05:15:25.718Z,21.76
2022-08-31T05:17:54.761Z,21.81
2022-08-31T05:20:23.508Z,21.88
2022-08-31T05:22:52.112Z,21.92
2022-08-31T05:25:22.370Z,21.96
2022-08-31T05:27:51.035Z,22.12
2022-08-31T05:30:23.496Z,22.15
2022-08-31T05:32:52.253Z,22.42
2022-08-31T05:35:21.539Z,22.76
2022-08-31T05:37:51.910Z,23.28
2022-08-31T05:40:23.000Z,23.99
2022-08-31T05:42:52.120Z,24.22
2022-08-31T05:45:20.804Z,24.01
2022-08-31T05:47:49.463Z,23.92
2022-08-31T05:50:19.293Z,23.41
2022-08-31T05:52:48.038Z,23.45
2022-08-31T05:55:16.850Z,23.47
2022-08-31T05:57:48.068Z,23.43
2022-08-31T06:00:17.289Z,23.48
2022-08-31T06:02:47.884Z,23.52
2022-08-31T06:05:18.465Z,23.62
2022-08-31T06:07:51.018Z,23.64
2022-08-31T06:10:21.789Z,23.93
2022-08-31T06:12:52.159Z,23.55
2022-08-31T06:15:21.082Z,23.81
2022-08-31T06:17:50.032Z,23.67
2022-08-31T06:20:22.082Z,23.97
2022-08-31T06:22:50.938Z,23.97
2022-08-31T06:25:21.066Z,23.99
2022-08-31T06:27:51.124Z,24.03
2022-08-31T06:30:22.159Z,24.19
2022-08-31T06:32:54.695Z,23.94
2022-08-31T06:35:28.215Z,23.84
2022-08-31T06:37:57.875Z,24.12
2022-08-31T06:40:27.156Z,24.41
2022-08-31T06:42:57.483Z,24.55
2022-08-31T06:45:28.940Z,24.32
2022-08-31T06:47:58.364Z,24.43
2022-08-31T06:50:28.633Z,24.32
2022-08-31T06:52:57.513Z,24.32
2022-08-31T06:55:26.431Z,24.41
2022-08-31T06:57:58.015Z,24.53
2022-08-31T07:00:28.440Z,24.40
2022-08-31T07:02:58.075Z,24.59
2022-08-31T07:05:27.155Z,24.38
2022-08-31T07:07:58.337Z,24.87
2022-08-31T07:10:27.123Z,24.59
2022-08-31T07:12:57.384Z,24.85
2022-08-31T07:15:26.086Z,24.70
2022-08-31T07:17:55.004Z,24.73
2022-08-31T07:20:23.761Z,24.55
2022-08-31T07:22:52.929Z,25.08
2022-08-31T07:25:23.160Z,24.83
2022-08-31T07:27:55.618Z,25.08
2022-08-31T07:30:27.001Z,24.87
2022-08-31T07:33:06.180Z,24.81
2022-08-31T07:35:35.502Z,24.92
2022-08-31T07:38:23.379Z,24.83
2022-08-31T07:41:10.250Z,24.83
2022-08-31T07:43:38.933Z,24.92
2022-08-31T07:46:10.174Z,25.19
2022-08-31T07:48:39.071Z,25.41
2022-08-31T07:51:11.413Z,25.62
2022-08-31T07:53:47.569Z,25.57
2022-08-31T07:56:18.070Z,25.36
2022-08-31T07:58:48.119Z,25.47
2022-08-31T08:01:20.077Z,25.53
2022-08-31T08:03:49.055Z,25.54
2022-08-31T08:06:28.711Z,25.61
2022-08-31T08:09:22.510Z,25.98
2022-08-31T08:12:01.024Z,25.89
2022-08-31T08:14:30.708Z,25.70
2022-08-31T08:17:01.345Z,26.19
2022-08-31T08:19:30.326Z,26.11
2022-08-31T08:21:59.842Z,26.20
2022-08-31T08:24:31.421Z,26.30
2022-08-31T08:27:03.649Z,26.13
2022-08-31T08:29:33.660Z,26.24
2022-08-31T08:32:05.217Z,26.01
2022-08-31T08:34:34.214Z,26.27
2022-08-31T08:37:03.520Z,26.37
2022-08-31T08:39:32.150Z,26.34
2022-08-31T08:42:01.122Z,26.31
2022-08-31T08:44:33.097Z,25.94
2022-08-31T08:47:07.333Z,25.87
2022-08-31T08:49:42.140Z,26.59
2022-08-31T08:52:14.088Z,26.32
2022-08-31T08:54:47.160Z,26.14
2022-08-31T08:57:22.356Z,26.56
2022-08-31T08:59:53.693Z,26.95
2022-08-31T09:02:28.173Z,27.12
2022-08-31T09:05:21.870Z,27.14
2022-08-31T09:08:01.817Z,27.02
2022-08-31T09:10:34.487Z,26.70
2022-08-31T09:13:13.806Z,27.06
2022-08-31T09:15:52.974Z,27.20
2022-08-31T09:18:33.079Z,27.26
2022-08-31T09:21:08.301Z,27.31
2022-08-31T09:23:41.181Z,27.13
2022-08-31T09:26:17.126Z,27.07
2022-08-31T09:28:49.207Z,26.71
2022-08-31T09:31:34.772Z,27.45
2022-08-31T09:34:06.872Z,27.63
2022-08-31T09:36:41.252Z,27.55
2022-08-31T09:39:18.038Z,27.71
2022-08-31T09:41:47.519Z,27.91
2022-08-31T09:44:26.816Z,27.77
2022-08-31T09:47:00.688Z,27.79
2022-08-31T09:49:33.628Z,27.79
2022-08-31T09:52:45.905Z,27.41
2022-08-31T09:55:21.408Z,27.87
2022-08-31T09:57:57.255Z,28.02
2022-08-31T10:00:36.324Z,27.75
2022-08-31T10:03:13.506Z,28.18
2022-08-31T10:05:44.661Z,28.13
2022-08-31T10:08:35.281Z,28.09
2022-08-31T10:11:10.434Z,27.71
2022-08-31T10:13:40.701Z,28.18
2022-08-31T10:16:26.636Z,28.25
2022-08-31T10:19:00.336Z,28.40
2022-08-31T10:21:39.191Z,28.38
2022-08-31T10:24:20.705Z,28.27
2022-08-31T10:26:54.047Z,29.24
2022-08-31T10:29:30.550Z,29.16
2022-08-31T10:32:01.451Z,29.25
2022-08-31T10:34:50.866Z,28.99
2022-08-31T10:37:25.949Z,29.20
2022-08-31T10:39:58.213Z,29.60
2022-08-31T10:42:30.054Z,29.42
2022-08-31T10:45:03.485Z,29.30
2022-08-31T10:47:41.431Z,28.88
2022-08-31T10:50:12.279Z,29.02
2022-08-31T10:52:52.126Z,29.44
2022-08-31T10:55:29.931Z,29.48
2022-08-31T10:58:02.453Z,29.49
2022-08-31T11:00:45.663Z,29.91
2022-08-31T11:03:19.291Z,29.93
2022-08-31T11:05:53.261Z,29.67
2022-08-31T11:08:39.769Z,29.93
2022-08-31T11:11:10.028Z,29.86
2022-08-31T11:13:51.998Z,29.96
2022-08-31T11:16:34.180Z,30.13
2022-08-31T11:19:25.526Z,30.20
2022-08-31T11:22:05.597Z,30.35
2022-08-31T11:25:08.581Z,29.94
2022-08-31T11:27:40.998Z,30.18
2022-08-31T11:30:24.216Z,30.30
2022-08-31T11:32:54.628Z,30.47
2022-08-31T11:36:02.703Z,30.86
2022-08-31T11:38:57.656Z,30.50
2022-08-31T11:41:46.866Z,30.81
2022-08-31T11:44:54.020Z,30.67
2022-08-31T11:47:46.681Z,30.97
2022-08-31T11:50:56.611Z,31.48
2022-08-31T11:53:33.006Z,31.65
2022-08-31T11:56:05.262Z,31.86
2022-08-31T11:58:39.948Z,31.37
2022-08-31T12:01:34.216Z,31.32
2022-08-31T12:04:04.475Z,31.42
2022-08-31T12:07:09.048Z,31.02
2022-08-31T12:10:14.875Z,31.18
2022-08-31T12:13:09.455Z,30.83
2022-08-31T12:16:01.239Z,30.95
2022-08-31T12:18:40.829Z,31.24
2022-08-31T12:21:31.407Z,31.52
2022-08-31T12:24:15.364Z,31.50
2022-08-31T12:27:15.383Z,31.69
2022-08-31T12:29:44.203Z,31.73
2022-08-31T12:32:29.034Z,31.38
2022-08-31T12:35:04.644Z,31.87
2022-08-31T12:37:35.277Z,31.85
2022-08-31T12:40:11.507Z,32.31
2022-08-31T12:42:48.174Z,32.21
2022-08-31T12:45:18.650Z,32.57
2022-08-31T12:48:01.857Z,32.22
2022-08-31T12:50:34.483Z,31.93
2022-08-31T12:53:28.882Z,31.11
2022-08-31T12:56:00.693Z,31.41
2022-08-31T12:58:51.232Z,31.52
2022-08-31T13:01:23.368Z,31.95
2022-08-31T13:03:55.339Z,31.68
2022-08-31T13:06:29.478Z,31.89
2022-08-31T13:08:59.595Z,31.54
2022-08-31T13:11:37.743Z,31.82
2022-08-31T13:14:15.328Z,32.18
2022-08-31T13:16:46.019Z,31.79
2022-08-31T13:19:25.912Z,32.01
2022-08-31T13:21:57.670Z,32.71
2022-08-31T13:24:30.529Z,32.77
2022-08-31T13:27:12.596Z,32.70
2022-08-31T13:29:45.226Z,33.11
2022-08-31T13:32:16.120Z,33.55
2022-08-31T13:34:48.799Z,33.88
2022-08-31T13:37:21.893Z,34.01
2022-08-31T13:39:51.010Z,34.04
2022-08-31T13:42:32.403Z,34.39
2022-08-31T13:45:03.220Z,34.51
2022-08-31T13:47:38.008Z,34.68
2022-08-31T13:50:32.769Z,34.79
2022-08-31T13:53:25.829Z,34.09
2022-08-31T13:55:52.443Z,34.14
2022-08-31T13:58:27.730Z,34.87
2022-08-31T14:01:22.178Z,34.91
2022-08-31T14:03:57.183Z,34.50
2022-08-31T14:06:29.952Z,33.65
2022-08-31T14:09:03.681Z,34.00
2022-08-31T14:11:33.832Z,34.13
2022-08-31T14:14:06.021Z,33.79
2022-08-31T14:16:37.307Z,33.69
2022-08-31T14:19:06.425Z,33.32
2022-08-31T14:21:42.050Z,33.40
2022-08-31T14:24:12.431Z,33.09
2022-08-31T14:26:42.609Z,32.69
2022-08-31T14:29:12.438Z,32.33
2022-08-31T14:31:45.241Z,32.62
2022-08-31T14:34:24.504Z,32.53
2022-08-31T14:36:57.670Z,32.79
2022-08-31T14:39:30.997Z,32.84
2022-08-31T14:42:01.618Z,32.78
2022-08-31T14:44:33.192Z,33.03
2022-08-31T14:47:02.140Z,33.21
2022-08-31T14:49:36.245Z,33.22
2022-08-31T14:52:07.271Z,33.02
2022-08-31T14:54:37.687Z,33.00
2022-08-31T14:57:12.816Z,32.38
2022-08-31T14:59:45.783Z,32.64
2022-08-31T15:02:16.444Z,32.87
2022-08-31T15:04:45.987Z,33.26
2022-08-31T15:07:17.109Z,33.19
2022-08-31T15:09:47.845Z,33.38
2022-08-31T15:12:19.449Z,32.92
2022-08-31T15:14:49.857Z,33.01
2022-08-31T15:17:20.537Z,33.03
2022-08-31T15:19:53.085Z,32.53
2022-08-31T15:22:23.795Z,32.12
2022-08-31T15:24:53.775Z,31.35
2022-08-31T15:27:23.458Z,30.87
2022-08-31T15:29:56.130Z,31.40
2022-08-31T15:32:24.837Z,31.33
2022-08-31T15:34:58.105Z,31.12
2022-08-31T15:37:32.183Z,31.15
2022-08-31T15:40:03.754Z,31.31
2022-08-31T15:42:39.868Z,31.43
2022-08-31T15:45:09.854Z,31.26
2022-08-31T15:47:58.566Z,30.61
2022-08-31T15:50:31.879Z,30.90
2022-08-31T15:53:09.499Z,31.06
2022-08-31T15:55:40.986Z,30.68
2022-08-31T15:58:10.512Z,30.40
2022-08-31T16:00:41.749Z,30.75
2022-08-31T16:03:11.033Z,30.16
2022-08-31T16:05:43.590Z,30.59
2022-08-31T16:08:14.284Z,30.58
2022-08-31T16:10:46.769Z,30.44
2022-08-31T16:13:16.894Z,29.45
2022-08-31T16:15:51.103Z,29.47
2022-08-31T16:18:21.946Z,29.76
2022-08-31T16:20:50.817Z,29.78
2022-08-31T16:23:21.389Z,29.82
2022-08-31T16:25:50.459Z,29.54
2022-08-31T16:28:19.876Z,29.59
2022-08-31T16:30:48.999Z,29.17
2022-08-31T16:33:20.661Z,29.60
2022-08-31T16:35:49.751Z,29.16
2022-08-31T16:38:18.552Z,29.40
2022-08-31T16:40:49.073Z,29.34
2022-08-31T16:43:17.792Z,29.13
2022-08-31T16:45:46.452Z,29.46
2022-08-31T16:48:32.927Z,29.51
2022-08-31T16:51:02.069Z,29.27
2022-08-31T16:53:32.936Z,28.67
2022-08-31T16:56:05.458Z,28.74
2022-08-31T16:58:51.251Z,29.11
2022-08-31T17:01:23.336Z,28.98
2022-08-31T17:03:55.939Z,28.77
2022-08-31T17:06:25.141Z,28.82
2022-08-31T17:08:57.672Z,28.57
2022-08-31T17:11:33.066Z,28.32
2022-08-31T17:14:03.323Z,28.72
2022-08-31T17:16:34.797Z,28.60
2022-08-31T17:19:08.010Z,28.48
2022-08-31T17:21:49.039Z,28.67
2022-08-31T17:24:21.685Z,28.16
2022-08-31T17:26:52.377Z,27.99
2022-08-31T17:29:23.561Z,28.18
2022-08-31T17:31:53.693Z,27.97
2022-08-31T17:34:26.938Z,27.86
2022-08-31T17:36:57.302Z,27.99
2022-08-31T17:39:26.905Z,28.01
2022-08-31T17:41:57.946Z,27.88
2022-08-31T17:44:29.026Z,28.01
2022-08-31T17:46:58.081Z,27.87
2022-08-31T17:49:28.628Z,27.63
2022-08-31T17:51:59.390Z,27.80
2022-08-31T17:54:32.716Z,27.61
2022-08-31T17:57:05.696Z,27.81
2022-08-31T17:59:36.898Z,27.65
2022-08-31T18:02:07.494Z,27.81
2022-08-31T18:04:36.653Z,27.57
2022-08-31T18:07:06.220Z,27.69
2022-08-31T18:09:37.143Z,27.39
2022-08-31T18:12:10.442Z,27.48
2022-08-31T18:14:40.157Z,27.59
2022-08-31T18:17:10.760Z,27.18
2022-08-31T18:19:40.412Z,27.21
2022-08-31T18:22:09.977Z,27.59
2022-08-31T18:24:39.092Z,27.32
2022-08-31T18:27:11.308Z,27.61
2022-08-31T18:29:40.461Z,27.53
2022-08-31T18:32:10.790Z,27.02
2022-08-31T18:34:43.830Z,27.07
2022-08-31T18:37:13.909Z,27.38
2022-08-31T18:40:02.362Z,27.43
2022-08-31T18:42:52.531Z,27.44
2022-08-31T18:45:21.705Z,27.53
2022-08-31T18:50:44.675Z,27.22
2022-08-31T18:53:27.641Z,27.28
2022-08-31T18:56:00.545Z,27.37
2022-08-31T18:58:31.083Z,27.31
2022-08-31T19:01:00.174Z,27.61
2022-08-31T19:03:29.413Z,27.64
2022-08-31T19:05:58.118Z,27.41
2022-08-31T19:08:27.177Z,27.29
2022-08-31T19:10:58.307Z,27.40
2022-08-31T19:13:31.504Z,26.95
2022-08-31T19:16:14.795Z,26.97
2022-08-31T19:18:45.320Z,26.94
2022-08-31T19:21:17.224Z,26.81
2022-08-31T19:23:46.972Z,26.96
2022-08-31T19:26:20.859Z,26.68
2022-08-31T19:28:50.511Z,26.62
2022-08-31T19:31:22.201Z,26.66
2022-08-31T19:33:56.470Z,26.26
2022-08-31T19:36:29.039Z,26.08
2022-08-31T19:38:59.673Z,25.88
2022-08-31T19:41:29.573Z,26.12
2022-08-31T19:44:08.532Z,26.12
2022-08-31T19:46:40.757Z,25.84
2022-08-31T19:49:11.140Z,25.93
2022-08-31T19:51:41.655Z,25.72
2022-08-31T19:54:12.666Z,25.74
2022-08-31T19:56:43.219Z,25.63
2022-08-31T19:59:18.546Z,25.20
2022-08-31T20:01:52.224Z,25.51
2022-08-31T20:04:23.469Z,25.79
2022-08-31T20:06:52.543Z,25.79
2022-08-31T20:09:23.319Z,25.37
2022-08-31T20:11:52.710Z,24.99
2022-08-31T20:14:23.613Z,25.01
2022-08-31T20:16:54.923Z,25.48
2022-08-31T20:19:25.707Z,25.53
2022-08-31T20:21:55.303Z,25.42
2022-08-31T20:24:26.778Z,25.20
2022-08-31T20:26:59.940Z,25.11
2022-08-31T20:29:30.523Z,25.05
2022-08-31T20:32:04.222Z,24.88
2022-08-31T20:34:33.400Z,25.08
2022-08-31T20:37:05.292Z,24.79
2022-08-31T20:39:35.383Z,24.69
2022-08-31T20:42:06.421Z,24.36
2022-08-31T20:44:37.356Z,24.31
2022-08-31T20:47:26.283Z,24.43
2022-08-31T20:49:56.660Z,24.42
2022-08-31T20:52:28.729Z,24.45
2022-08-31T20:55:01.310Z,24.63
2022-08-31T20:57:32.418Z,24.69
2022-08-31T21:00:03.104Z,24.87
2022-08-31T21:02:35.055Z,24.64
2022-08-31T21:05:36.420Z,24.69
2022-08-31T21:07:57.240Z,24.53
2022-08-31T21:10:36.364Z,24.81
2022-08-31T21:13:08.709Z,24.64
2022-08-31T21:15:41.969Z,24.47
2022-08-31T21:18:12.748Z,24.24
2022-08-31T21:20:41.664Z,24.55
2022-08-31T21:23:12.711Z,24.67
2022-08-31T21:25:43.893Z,24.44
2022-08-31T21:28:14.456Z,24.64
2022-08-31T21:30:43.921Z,24.79
2022-08-31T21:33:13.971Z,24.61
2022-08-31T21:35:43.216Z,24.51
2022-08-31T21:38:13.082Z,24.77
2022-08-31T21:40:48.985Z,24.15
2022-08-31T21:43:18.197Z,24.21
2022-08-31T21:45:47.021Z,24.24
2022-08-31T21:48:17.176Z,24.41
2022-08-31T21:50:55.147Z,24.32
2022-08-31T21:53:25.758Z,24.70
2022-08-31T21:55:55.376Z,24.09
2022-08-31T21:58:24.121Z,24.47
2022-08-31T22:00:52.826Z,24.38
2022-08-31T22:03:23.252Z,24.51
2022-08-31T22:05:53.159Z,23.89
2022-08-31T22:08:24.086Z,24.18
2022-08-31T22:10:52.742Z,24.06
2022-08-31T22:13:21.544Z,24.39
2022-08-31T22:15:50.555Z,23.54
2022-08-31T22:18:59.306Z,23.74
2022-08-31T22:21:09.847Z,23.97
2022-08-31T22:23:38.729Z,23.54
2022-08-31T22:26:07.363Z,23.90
2022-08-31T22:28:36.397Z,23.62
2022-08-31T22:31:07.381Z,23.66
2022-08-31T22:33:38.075Z,23.75
2022-08-31T22:36:30.966Z,23.31
2022-08-31T22:39:03.231Z,23.52
2022-08-31T22:41:32.984Z,23.57
2022-08-31T22:44:02.053Z,23.29
2022-08-31T22:46:30.885Z,23.52
2022-08-31T22:48:59.665Z,22.61
2022-08-31T22:51:32.815Z,23.23
2022-08-31T22:54:01.422Z,23.40
2022-08-31T22:56:32.562Z,23.37
2022-08-31T22:59:01.549Z,23.42
2022-08-31T23:01:32.962Z,23.46
2022-08-31T23:04:06.689Z,23.39
2022-08-31T23:06:39.023Z,23.17
2022-08-31T23:09:10.402Z,22.90
2022-08-31T23:11:40.214Z,22.58
2022-08-31T23:14:10.335Z,22.25
2022-08-31T23:16:41.031Z,22.05
2022-08-31T23:19:12.449Z,21.85
2022-08-31T23:21:46.031Z,21.67
2022-08-31T23:24:16.758Z,21.50
2022-08-31T23:26:45.784Z,21.31
2022-08-31T23:29:18.065Z,21.14
2022-08-31T23:31:48.728Z,21.25
2022-08-31T23:34:18.050Z,20.85
2022-08-31T23:36:49.873Z,20.46
2022-08-31T23:39:20.051Z,20.84
2022-08-31T23:41:49.228Z,21.26
2022-08-31T23:44:19.352Z,20.82
2022-08-31T23:46:50.075Z,21.19
2022-08-31T23:49:22.977Z,21.04
2022-08-31T23:51:52.967Z,20.89
2022-08-31T23:54:23.307Z,20.86
2022-08-31T23:56:57.804Z,20.81
2022-08-31T23:59:26.783Z,21.19
